createdAt,value
2019-05-22T00:01:10.780Z,34.37
2019-05-22T00:03:45.274Z,31.17
2019-05-22T00:06:16.792Z,32.67
2019-05-22T00:08:48.030Z,37.70
2019-05-22T00:11:19.586Z,36.43
2019-05-22T00:13:50.693Z,32.27
2019-05-22T00:16:22.082Z,30.80
2019-05-22T00:18:52.876Z,32.83
2019-05-22T00:21:22.700Z,32.43
2019-05-22T00:23:52.436Z,28.77
2019-05-22T00:26:23.261Z,31.47
2019-05-22T00:28:54.122Z,28.60
2019-05-22T00:31:23.800Z,29.90
2019-05-22T00:33:54.374Z,32.73
2019-05-22T00:36:24.273Z,29.87
2019-05-22T00:38:55.613Z,35.10
2019-05-22T00:41:26.899Z,29.37
2019-05-22T00:43:56.527Z,31.37
2019-05-22T00:46:26.436Z,30.57
2019-05-22T00:48:55.900Z,31.50
2019-05-22T00:51:36.938Z,27.63
2019-05-22T00:54:26.300Z,29.17
2019-05-22T00:56:57.641Z,26.23
2019-05-22T00:59:29.593Z,26.63
2019-05-22T01:02:17.802Z,26.17
2019-05-22T01:04:52.044Z,26.97
2019-05-22T01:07:29.861Z,25.67
2019-05-22T01:09:59.878Z,24.40
2019-05-22T01:12:34.012Z,31.37
2019-05-22T01:15:06.758Z,30.07
2019-05-22T01:17:36.767Z,27.67
2019-05-22T01:20:12.924Z,32.60
2019-05-22T01:22:42.582Z,25.70
2019-05-22T01:25:15.918Z,23.43
2019-05-22T01:27:47.144Z,24.60
2019-05-22T01:30:23.486Z,27.60
2019-05-22T01:32:54.974Z,27.07
2019-05-22T01:35:40.673Z,25.23
2019-05-22T01:38:12.545Z,26.87
2019-05-22T01:40:50.159Z,30.03
2019-05-22T01:43:21.649Z,28.93
2019-05-22T01:45:53.589Z,25.90
2019-05-22T01:48:36.757Z,31.90
2019-05-22T01:51:07.162Z,29.40
2019-05-22T01:53:40.871Z,28.13
2019-05-22T01:56:13.577Z,27.30
2019-05-22T01:58:45.186Z,32.17
2019-05-22T02:01:23.792Z,33.17
2019-05-22T02:03:55.381Z,26.77
2019-05-22T02:06:26.240Z,31.97
2019-05-22T02:09:02.885Z,27.43
2019-05-22T02:11:33.463Z,31.70
2019-05-22T02:14:12.320Z,35.47
2019-05-22T02:16:56.811Z,30.00
2019-05-22T02:19:20.709Z,27.70
2019-05-22T02:21:50.394Z,30.80
2019-05-22T02:24:20.195Z,31.63
2019-05-22T02:26:50.126Z,28.60
2019-05-22T02:29:21.216Z,32.87
2019-05-22T02:31:55.125Z,28.03
2019-05-22T02:34:22.643Z,25.87
2019-05-22T02:36:53.626Z,27.90
2019-05-22T02:39:30.466Z,25.67
2019-05-22T02:42:09.457Z,25.43
2019-05-22T02:44:39.119Z,28.17
2019-05-22T02:47:19.041Z,22.43
2019-05-22T02:49:43.091Z,22.87
2019-05-22T02:52:14.869Z,25.10
2019-05-22T02:54:45.506Z,26.00
2019-05-22T02:57:15.333Z,23.67
2019-05-22T02:59:45.579Z,25.37
2019-05-22T03:02:15.911Z,25.13
2019-05-22T03:05:03.584Z,26.20
2019-05-22T03:07:33.211Z,25.43
2019-05-22T03:10:03.402Z,25.87
2019-05-22T03:12:34.610Z,23.77
2019-05-22T03:15:10.971Z,21.63
2019-05-22T03:17:41.640Z,25.87
2019-05-22T03:20:13.767Z,28.33
2019-05-22T03:22:55.053Z,28.50
2019-05-22T03:25:27.073Z,24.93
2019-05-22T03:27:57.582Z,23.70
2019-05-22T03:30:34.066Z,23.07
2019-05-22T03:33:06.232Z,27.70
2019-05-22T03:35:47.812Z,24.63
2019-05-22T03:38:20.128Z,22.37
2019-05-22T03:40:52.119Z,23.40
2019-05-22T03:43:24.481Z,30.03
2019-05-22T03:45:56.175Z,32.43
2019-05-22T03:48:29.035Z,32.40
2019-05-22T03:51:11.955Z,32.20
2019-05-22T03:53:42.196Z,31.90
2019-05-22T03:56:12.541Z,25.43
2019-05-22T03:58:42.629Z,30.83
2019-05-22T04:01:12.422Z,33.27
2019-05-22T04:03:43.882Z,29.57
2019-05-22T04:06:14.502Z,30.90
2019-05-22T04:08:45.474Z,31.80
2019-05-22T04:11:16.558Z,32.83
2019-05-22T04:13:46.752Z,28.23
2019-05-22T04:16:23.633Z,30.77
2019-05-22T04:18:53.472Z,29.73
2019-05-22T04:21:23.213Z,26.97
2019-05-22T04:23:52.833Z,29.93
2019-05-22T04:26:22.762Z,27.93
2019-05-22T04:28:54.839Z,29.60
2019-05-22T04:31:36.493Z,33.63
2019-05-22T04:34:06.203Z,29.10
2019-05-22T04:36:36.149Z,34.87
2019-05-22T04:39:09.168Z,34.97
2019-05-22T04:41:38.819Z,29.93
2019-05-22T04:44:08.293Z,28.50
2019-05-22T04:46:38.186Z,30.03
2019-05-22T04:49:07.728Z,32.03
2019-05-22T04:51:38.983Z,26.17
2019-05-22T04:54:08.739Z,30.97
2019-05-22T04:56:38.950Z,26.50
2019-05-22T04:59:08.777Z,24.93
2019-05-22T05:01:38.513Z,26.83
2019-05-22T05:04:08.237Z,30.40
2019-05-22T05:06:38.458Z,31.00
2019-05-22T05:09:09.792Z,23.03
2019-05-22T05:11:39.716Z,23.73
2019-05-22T05:14:09.376Z,23.67
2019-05-22T05:16:39.032Z,25.97
2019-05-22T05:19:08.732Z,21.10
2019-05-22T05:21:38.797Z,23.30
2019-05-22T05:24:08.369Z,24.60
2019-05-22T05:26:39.182Z,22.77
2019-05-22T05:29:12.233Z,22.13
2019-05-22T05:31:42.240Z,21.50
2019-05-22T05:34:20.729Z,21.93
2019-05-22T05:36:50.443Z,23.10
2019-05-22T05:39:39.696Z,20.73
2019-05-22T05:42:09.563Z,22.40
2019-05-22T05:44:39.049Z,20.70
2019-05-22T05:47:09.192Z,19.70
2019-05-22T05:49:39.243Z,18.37
2019-05-22T05:52:10.494Z,17.23
2019-05-22T05:54:41.681Z,17.20
2019-05-22T05:57:34.225Z,19.83
2019-05-22T06:00:07.957Z,18.00
2019-05-22T06:02:37.490Z,19.07
2019-05-22T06:05:08.241Z,19.83
2019-05-22T06:07:38.383Z,17.10
2019-05-22T06:10:29.442Z,21.27
2019-05-22T06:13:00.662Z,17.63
2019-05-22T06:15:47.700Z,16.83
2019-05-22T06:18:34.895Z,17.70
2019-05-22T06:21:06.050Z,17.00
2019-05-22T06:23:42.213Z,16.73
2019-05-22T06:26:33.612Z,18.57
2019-05-22T06:29:04.896Z,19.53
2019-05-22T06:31:57.385Z,17.30
2019-05-22T06:34:27.509Z,16.93
2019-05-22T06:37:00.166Z,14.90
2019-05-22T06:39:31.301Z,16.93
2019-05-22T06:42:01.204Z,16.60
2019-05-22T06:44:33.745Z,15.73
2019-05-22T06:47:05.293Z,18.17
2019-05-22T06:49:37.460Z,14.53
2019-05-22T06:52:08.862Z,16.43
2019-05-22T06:54:38.816Z,13.73
2019-05-22T06:57:11.864Z,27.47
2019-05-22T06:59:43.549Z,13.20
2019-05-22T07:02:15.253Z,13.03
2019-05-22T07:04:46.444Z,14.60
2019-05-22T07:07:17.679Z,13.30
2019-05-22T07:09:48.336Z,15.73
2019-05-22T07:12:20.547Z,15.07
2019-05-22T07:15:06.690Z,14.67
2019-05-22T07:17:37.660Z,16.53
2019-05-22T07:20:08.610Z,13.30
2019-05-22T07:22:38.574Z,14.20
2019-05-22T07:25:09.494Z,13.63
2019-05-22T07:27:39.742Z,12.00
2019-05-22T07:30:10.089Z,11.90
2019-05-22T07:32:40.004Z,9.90
2019-05-22T07:35:10.524Z,10.33
2019-05-22T07:37:45.035Z,10.90
2019-05-22T07:40:15.650Z,9.00
2019-05-22T07:42:45.527Z,10.77
2019-05-22T07:45:15.929Z,9.87
2019-05-22T07:47:46.849Z,9.00
2019-05-22T07:50:17.495Z,8.17
2019-05-22T07:52:47.801Z,7.70
2019-05-22T07:55:19.805Z,6.67
2019-05-22T07:57:51.725Z,8.43
2019-05-22T08:00:21.839Z,6.93
2019-05-22T08:02:52.032Z,7.20
2019-05-22T08:05:23.482Z,7.73
2019-05-22T08:07:53.706Z,6.90
2019-05-22T08:10:23.767Z,8.00
2019-05-22T08:12:54.049Z,9.10
2019-05-22T08:15:26.130Z,8.10
2019-05-22T08:17:56.044Z,7.83
2019-05-22T08:20:26.168Z,7.70
2019-05-22T08:22:56.684Z,6.17
2019-05-22T08:25:26.565Z,8.33
2019-05-22T08:27:57.044Z,6.80
2019-05-22T08:30:26.775Z,6.70
2019-05-22T08:32:58.422Z,8.30
2019-05-22T08:35:28.443Z,7.40
2019-05-22T08:37:58.174Z,8.17
2019-05-22T08:40:28.017Z,7.13
2019-05-22T08:42:57.917Z,7.83
2019-05-22T08:45:28.773Z,10.20
2019-05-22T08:47:58.791Z,9.03
2019-05-22T08:50:31.018Z,11.70
2019-05-22T08:53:01.840Z,10.93
2019-05-22T08:55:35.205Z,9.53
2019-05-22T08:58:05.845Z,11.13
2019-05-22T09:00:35.618Z,10.17
2019-05-22T09:03:05.903Z,9.97
2019-05-22T09:05:35.473Z,8.73
2019-05-22T09:08:05.232Z,10.40
2019-05-22T09:10:35.320Z,11.40
2019-05-22T09:13:05.009Z,8.57
2019-05-22T09:15:34.880Z,8.53
2019-05-22T09:18:05.002Z,11.40
2019-05-22T09:20:48.648Z,7.40
2019-05-22T09:23:07.986Z,8.23
2019-05-22T09:25:37.554Z,7.27
2019-05-22T09:28:07.262Z,8.33
2019-05-22T09:30:37.549Z,8.37
2019-05-22T09:33:08.664Z,7.37
2019-05-22T09:35:38.125Z,7.07
2019-05-22T09:38:07.766Z,7.73
2019-05-22T09:40:37.405Z,6.53
2019-05-22T09:43:06.868Z,7.33
2019-05-22T09:45:36.795Z,7.17
2019-05-22T09:48:07.743Z,8.17
2019-05-22T09:50:37.756Z,7.17
2019-05-22T09:53:09.114Z,8.60
2019-05-22T09:55:39.644Z,8.93
2019-05-22T09:58:09.662Z,8.33
2019-05-22T10:00:39.221Z,9.57
2019-05-22T10:03:09.228Z,9.00
2019-05-22T10:05:39.055Z,9.73
2019-05-22T10:08:08.737Z,8.73
2019-05-22T10:10:38.544Z,11.93
2019-05-22T10:13:08.070Z,9.97
2019-05-22T10:15:37.614Z,9.80
2019-05-22T10:18:07.556Z,11.70
2019-05-22T10:20:37.417Z,8.93
2019-05-22T10:23:15.446Z,10.70
2019-05-22T10:25:38.895Z,10.33
2019-05-22T10:28:08.426Z,9.80
2019-05-22T10:30:38.258Z,10.83
2019-05-22T10:33:08.229Z,10.90
2019-05-22T10:35:39.445Z,10.87
2019-05-22T10:38:09.484Z,11.37
2019-05-22T10:40:39.138Z,10.20
2019-05-22T10:43:08.923Z,11.50
2019-05-22T10:45:39.009Z,10.53
2019-05-22T10:48:08.549Z,9.13
2019-05-22T10:50:38.930Z,9.77
2019-05-22T10:53:08.578Z,10.77
2019-05-22T10:55:38.713Z,9.30
2019-05-22T10:58:08.868Z,8.80
2019-05-22T11:00:38.396Z,10.30
2019-05-22T11:03:08.273Z,8.07
2019-05-22T11:05:37.846Z,8.60
2019-05-22T11:08:08.094Z,8.23
2019-05-22T11:10:37.905Z,7.80
2019-05-22T11:13:08.432Z,8.10
2019-05-22T11:15:38.152Z,9.00
2019-05-22T11:18:08.118Z,8.93
2019-05-22T11:20:38.078Z,7.87
2019-05-22T11:23:07.915Z,8.10
2019-05-22T11:25:37.757Z,7.63
2019-05-22T11:28:07.445Z,7.33
2019-05-22T11:30:37.840Z,6.90
2019-05-22T11:33:08.084Z,11.00
2019-05-22T11:35:37.931Z,7.80
2019-05-22T11:38:07.735Z,8.13
2019-05-22T11:40:37.312Z,10.40
2019-05-22T11:43:07.692Z,9.27
2019-05-22T11:45:37.245Z,8.07
2019-05-22T11:48:07.492Z,7.07
2019-05-22T11:50:38.055Z,7.53
2019-05-22T11:53:07.768Z,7.10
2019-05-22T11:55:44.987Z,6.93
2019-05-22T11:58:09.644Z,8.67
2019-05-22T12:00:39.576Z,10.20
2019-05-22T12:03:09.188Z,9.13
2019-05-22T12:05:40.028Z,8.50
2019-05-22T12:08:11.250Z,12.97
2019-05-22T12:10:40.992Z,8.40
2019-05-22T12:13:10.760Z,9.00
2019-05-22T12:15:40.738Z,9.43
2019-05-22T12:18:10.919Z,8.63
2019-05-22T12:20:40.396Z,9.90
2019-05-22T12:23:10.125Z,9.47
2019-05-22T12:25:39.864Z,9.60
2019-05-22T12:28:09.501Z,10.30
2019-05-22T12:30:40.120Z,8.80
2019-05-22T12:33:13.735Z,8.63
2019-05-22T12:35:43.866Z,8.73
2019-05-22T12:38:14.897Z,8.10
2019-05-22T12:40:45.215Z,7.40
2019-05-22T12:43:16.110Z,8.20
2019-05-22T12:45:46.087Z,6.80
2019-05-22T12:48:15.954Z,7.10
2019-05-22T12:50:46.465Z,7.80
2019-05-22T12:53:17.324Z,7.37
2019-05-22T12:55:47.381Z,8.77
2019-05-22T12:58:17.978Z,7.43
2019-05-22T13:00:47.780Z,6.87
2019-05-22T13:03:18.108Z,7.13
2019-05-22T13:05:49.464Z,6.70
2019-05-22T13:08:21.612Z,6.83
2019-05-22T13:10:52.912Z,6.47
2019-05-22T13:13:22.632Z,6.87
2019-05-22T13:15:52.356Z,6.33
2019-05-22T13:18:23.530Z,7.30
2019-05-22T13:20:54.153Z,8.23
2019-05-22T13:23:27.006Z,6.53
2019-05-22T13:25:57.503Z,6.93
2019-05-22T13:28:29.773Z,6.17
2019-05-22T13:31:00.549Z,6.67
2019-05-22T13:33:31.906Z,6.40
2019-05-22T13:36:02.943Z,6.47
2019-05-22T13:38:32.841Z,7.00
2019-05-22T13:41:03.103Z,6.60
2019-05-22T13:43:33.505Z,6.93
2019-05-22T13:46:03.364Z,5.80
2019-05-22T13:48:33.409Z,7.40
2019-05-22T13:51:03.225Z,6.77
2019-05-22T13:53:33.740Z,5.43
2019-05-22T13:56:04.482Z,6.47
2019-05-22T13:58:35.209Z,6.33
2019-05-22T14:01:04.905Z,5.47
2019-05-22T14:03:34.667Z,6.10
2019-05-22T14:06:04.646Z,6.50
2019-05-22T14:08:34.432Z,6.43
2019-05-22T14:11:04.517Z,7.13
2019-05-22T14:13:34.741Z,8.20
2019-05-22T14:16:04.470Z,7.53
2019-05-22T14:18:34.192Z,8.67
2019-05-22T14:21:03.681Z,6.77
2019-05-22T14:23:33.568Z,8.37
2019-05-22T14:26:03.522Z,6.87
2019-05-22T14:28:34.143Z,6.73
2019-05-22T14:31:04.539Z,7.43
2019-05-22T14:33:34.778Z,5.33
2019-05-22T14:36:04.994Z,6.47
2019-05-22T14:38:34.737Z,6.93
2019-05-22T14:41:04.812Z,6.77
2019-05-22T14:43:34.578Z,6.13
2019-05-22T14:46:04.370Z,5.87
2019-05-22T14:48:34.143Z,6.47
2019-05-22T14:51:03.901Z,6.27
2019-05-22T14:53:34.900Z,5.07
2019-05-22T14:56:10.590Z,5.90
2019-05-22T14:58:39.333Z,5.47
2019-05-22T15:01:09.864Z,4.50
2019-05-22T15:03:39.570Z,4.63
2019-05-22T15:06:09.522Z,4.80
2019-05-22T15:08:39.351Z,5.40
2019-05-22T15:11:10.153Z,4.17
2019-05-22T15:13:40.406Z,5.17
2019-05-22T15:16:11.026Z,4.97
2019-05-22T15:18:41.316Z,5.43
2019-05-22T15:21:11.472Z,5.47
2019-05-22T15:23:41.788Z,5.47
2019-05-22T15:26:11.490Z,5.40
2019-05-22T15:28:41.428Z,5.83
2019-05-22T15:31:10.967Z,5.40
2019-05-22T15:33:41.088Z,5.73
2019-05-22T15:36:13.439Z,5.87
2019-05-22T15:38:44.325Z,5.80
2019-05-22T15:41:14.053Z,6.00
2019-05-22T15:43:45.153Z,5.80
2019-05-22T15:46:15.897Z,5.90
2019-05-22T15:48:47.540Z,6.80
2019-05-22T15:51:21.098Z,7.20
2019-05-22T15:53:52.758Z,5.33
2019-05-22T15:56:22.925Z,5.47
2019-05-22T15:58:55.659Z,6.20
2019-05-22T16:01:27.937Z,5.73
2019-05-22T16:03:59.094Z,5.83
2019-05-22T16:06:30.033Z,5.57
2019-05-22T16:09:00.919Z,7.47
2019-05-22T16:11:31.461Z,4.80
2019-05-22T16:14:01.814Z,5.10
2019-05-22T16:16:33.989Z,5.03
2019-05-22T16:19:07.231Z,7.67
2019-05-22T16:21:40.420Z,4.93
2019-05-22T16:24:11.390Z,6.23
2019-05-22T16:26:41.798Z,6.70
2019-05-22T16:29:11.861Z,5.63
2019-05-22T16:31:43.656Z,6.90
2019-05-22T16:34:14.229Z,6.27
2019-05-22T16:36:45.229Z,6.03
2019-05-22T16:39:17.085Z,5.63
2019-05-22T16:41:47.434Z,5.07
2019-05-22T16:44:17.308Z,5.97
2019-05-22T16:46:48.572Z,5.27
2019-05-22T16:49:18.164Z,6.47
2019-05-22T16:51:48.633Z,6.43
2019-05-22T16:54:20.875Z,5.10
2019-05-22T16:56:51.318Z,6.70
2019-05-22T16:59:21.500Z,5.43
2019-05-22T17:02:00.333Z,5.23
2019-05-22T17:04:22.725Z,8.00
2019-05-22T17:06:52.245Z,6.33
2019-05-22T17:09:22.854Z,5.87
2019-05-22T17:11:52.873Z,5.40
2019-05-22T17:14:24.963Z,5.67
2019-05-22T17:16:54.587Z,5.07
2019-05-22T17:19:27.526Z,5.17
2019-05-22T17:21:55.601Z,6.90
2019-05-22T17:24:25.930Z,5.10
2019-05-22T17:26:56.258Z,4.80
2019-05-22T17:29:26.267Z,5.77
2019-05-22T17:31:56.189Z,5.87
2019-05-22T17:34:32.573Z,5.40
2019-05-22T17:37:09.594Z,4.23
2019-05-22T17:39:42.241Z,5.77
2019-05-22T17:42:16.189Z,5.53
2019-05-22T17:44:49.539Z,4.80
2019-05-22T17:47:21.789Z,4.80
2019-05-22T17:49:52.577Z,5.40
2019-05-22T17:52:23.252Z,5.30
2019-05-22T17:54:52.980Z,4.90
2019-05-22T17:57:24.315Z,5.00
2019-05-22T17:59:55.721Z,5.67
2019-05-22T18:02:26.944Z,4.90
2019-05-22T18:04:56.901Z,4.70
2019-05-22T18:07:26.725Z,5.37
2019-05-22T18:09:56.395Z,5.17
2019-05-22T18:12:26.971Z,5.27
2019-05-22T18:14:56.917Z,4.67
2019-05-22T18:17:27.326Z,5.90
2019-05-22T18:19:57.398Z,4.27
2019-05-22T18:22:30.003Z,4.33
2019-05-22T18:24:59.945Z,5.40
2019-05-22T18:27:30.716Z,4.97
2019-05-22T18:30:00.434Z,4.23
2019-05-22T18:32:32.102Z,5.43
2019-05-22T18:35:01.630Z,4.80
2019-05-22T18:37:31.797Z,5.87
2019-05-22T18:40:01.846Z,4.87
2019-05-22T18:42:31.987Z,4.60
2019-05-22T18:45:01.509Z,5.27
2019-05-22T18:47:32.136Z,6.77
2019-05-22T18:50:01.745Z,5.67
2019-05-22T18:52:40.452Z,7.87
2019-05-22T18:55:05.473Z,5.77
2019-05-22T18:57:35.666Z,5.10
2019-05-22T19:00:06.330Z,6.83
2019-05-22T19:02:36.648Z,4.30
2019-05-22T19:05:07.926Z,6.20
2019-05-22T19:07:37.584Z,5.07
2019-05-22T19:10:08.307Z,5.70
2019-05-22T19:12:37.792Z,5.27
2019-05-22T19:15:08.285Z,5.80
2019-05-22T19:17:38.509Z,6.07
2019-05-22T19:20:08.659Z,5.77
2019-05-22T19:22:38.680Z,6.30
2019-05-22T19:25:08.609Z,5.60
2019-05-22T19:27:38.240Z,6.47
2019-05-22T19:30:09.341Z,5.97
2019-05-22T19:32:39.034Z,5.90
2019-05-22T19:35:09.897Z,6.00
2019-05-22T19:37:40.618Z,6.57
2019-05-22T19:40:12.984Z,5.47
2019-05-22T19:42:43.662Z,6.37
2019-05-22T19:45:14.253Z,6.47
2019-05-22T19:47:52.725Z,5.10
2019-05-22T19:50:25.274Z,5.67
2019-05-22T19:52:56.724Z,6.80
2019-05-22T19:55:28.661Z,6.13
2019-05-22T19:57:59.909Z,7.13
2019-05-22T20:00:30.700Z,8.23
2019-05-22T20:03:00.997Z,6.50
2019-05-22T20:05:31.535Z,6.97
2019-05-22T20:08:01.257Z,6.60
2019-05-22T20:10:30.989Z,6.00
2019-05-22T20:13:01.589Z,7.20
2019-05-22T20:15:31.318Z,6.77
2019-05-22T20:18:01.876Z,6.93
2019-05-22T20:20:31.834Z,7.30
2019-05-22T20:23:01.722Z,6.90
2019-05-22T20:25:31.540Z,7.50
2019-05-22T20:28:02.821Z,6.40
2019-05-22T20:30:32.724Z,7.37
2019-05-22T20:33:03.765Z,7.90
2019-05-22T20:35:34.537Z,7.73
2019-05-22T20:38:04.497Z,7.33
2019-05-22T20:40:35.431Z,7.80
2019-05-22T20:43:08.027Z,7.30
2019-05-22T20:45:40.886Z,9.33
2019-05-22T20:48:19.251Z,7.60
2019-05-22T20:50:49.820Z,7.53
2019-05-22T20:53:19.776Z,7.60
2019-05-22T20:55:50.877Z,6.97
2019-05-22T20:58:22.887Z,6.50
2019-05-22T21:00:53.228Z,7.90
2019-05-22T21:03:23.384Z,7.60
2019-05-22T21:05:55.655Z,7.33
2019-05-22T21:08:26.676Z,6.67
2019-05-22T21:10:57.479Z,7.27
2019-05-22T21:13:27.130Z,8.57
2019-05-22T21:15:57.052Z,8.33
2019-05-22T21:18:29.791Z,8.63
2019-05-22T21:20:59.388Z,8.43
2019-05-22T21:23:29.736Z,8.13
2019-05-22T21:25:59.670Z,7.93
2019-05-22T21:28:29.245Z,8.03
2019-05-22T21:30:59.826Z,8.23
2019-05-22T21:33:30.048Z,10.10
2019-05-22T21:36:01.468Z,9.10
2019-05-22T21:38:31.222Z,7.67
2019-05-22T21:41:01.124Z,7.87
2019-05-22T21:43:31.264Z,6.93
2019-05-22T21:46:01.166Z,8.63
2019-05-22T21:48:31.581Z,7.23
2019-05-22T21:51:02.659Z,7.07
2019-05-22T21:53:33.299Z,7.83
2019-05-22T21:56:06.281Z,8.07
2019-05-22T21:58:37.049Z,7.97
2019-05-22T22:01:11.245Z,7.43
2019-05-22T22:03:46.581Z,7.70
2019-05-22T22:06:17.407Z,7.27
2019-05-22T22:08:47.779Z,7.90
2019-05-22T22:11:18.348Z,7.43
2019-05-22T22:13:49.095Z,8.20
2019-05-22T22:16:18.692Z,8.07
2019-05-22T22:18:49.208Z,8.73
2019-05-22T22:21:18.988Z,7.70
2019-05-22T22:23:48.830Z,8.07
2019-05-22T22:26:26.066Z,8.17
2019-05-22T22:28:50.708Z,7.27
2019-05-22T22:31:21.898Z,8.57
2019-05-22T22:33:55.064Z,9.13
2019-05-22T22:36:25.339Z,7.70
2019-05-22T22:38:55.666Z,9.00
2019-05-22T22:41:26.362Z,8.17
2019-05-22T22:43:57.019Z,7.00
2019-05-22T22:46:46.500Z,8.27
2019-05-22T22:49:18.584Z,6.60
2019-05-22T22:51:48.984Z,7.80
2019-05-22T22:54:20.325Z,6.63
2019-05-22T22:56:50.386Z,6.57
2019-05-22T22:59:21.049Z,7.23
2019-05-22T23:01:53.628Z,6.87
2019-05-22T23:04:26.501Z,7.17
2019-05-22T23:06:59.557Z,8.40
2019-05-22T23:09:29.360Z,6.40
2019-05-22T23:12:00.448Z,7.83
2019-05-22T23:14:32.785Z,7.67
2019-05-22T23:17:03.659Z,7.73
2019-05-22T23:19:33.537Z,7.33
2019-05-22T23:22:03.219Z,8.13
2019-05-22T23:24:34.866Z,8.00
2019-05-22T23:27:06.642Z,8.50
2019-05-22T23:29:38.520Z,8.10
2019-05-22T23:32:09.328Z,7.37
2019-05-22T23:34:38.789Z,9.63
2019-05-22T23:37:10.764Z,8.50
2019-05-22T23:39:40.740Z,9.77
2019-05-22T23:42:14.257Z,12.70
2019-05-22T23:44:46.237Z,8.90
2019-05-22T23:47:16.651Z,9.63
2019-05-22T23:49:46.692Z,8.20
2019-05-22T23:52:16.565Z,8.47
2019-05-22T23:54:48.293Z,8.90
2019-05-22T23:57:18.292Z,9.67
2019-05-22T23:59:49.986Z,8.13
